Terminal Aerodrome Forecast
Issued by NWS

Home | Current Version | Previous Version | Graphics & Text | Print | Product List | Glossary On
Versions: 1 2 3 4 5 6 7 8 9 10 11 12 13 14 15 16 17 18 19 20 21 22 23 24 25 26 27 28 29 30
000
FTUS43 KABR 281100
TAFMBG
TAF
KMBG 281131Z 2812/2912 35007KT P6SM SCT025
      TEMPO 2812/2816 BKN025
     FM281600 03011G17KT P6SM OVC020
     FM290300 04015KT P6SM OVC007=

USA.gov is the U.S. government's official web portal to all federal, state and local government web resources and services.